sensor_id;sensor_type;location;lat;lon;timestamp;P1;durP1;ratioP1;P2;durP2;ratioP2
65377;SDS011;51982;51.042;13.806;2024-02-15T00:01:39;307.05;;;187.90;;
65377;SDS011;51982;51.042;13.806;2024-02-15T00:04:04;464.05;;;358.65;;
65377;SDS011;51982;51.042;13.806;2024-02-15T00:06:31;294.35;;;187.57;;
65377;SDS011;51982;51.042;13.806;2024-02-15T00:08:56;158.90;;;91.20;;
65377;SDS011;51982;51.042;13.806;2024-02-15T00:11:22;85.20;;;44.20;;
65377;SDS011;51982;51.042;13.806;2024-02-15T00:13:47;25.33;;;11.48;;
65377;SDS011;51982;51.042;13.806;2024-02-15T00:16:13;12.20;;;7.50;;
65377;SDS011;51982;51.042;13.806;2024-02-15T00:18:39;18.50;;;7.57;;
65377;SDS011;51982;51.042;13.806;2024-02-15T00:21:05;9.95;;;6.63;;
65377;SDS011;51982;51.042;13.806;2024-02-15T00:23:30;12.05;;;6.32;;
65377;SDS011;51982;51.042;13.806;2024-02-15T00:31:20;323.23;;;218.82;;
65377;SDS011;51982;51.042;13.806;2024-02-15T00:33:45;103.28;;;61.30;;
65377;SDS011;51982;51.042;13.806;2024-02-15T00:36:11;8.82;;;3.88;;
65377;SDS011;51982;51.042;13.806;2024-02-15T00:38:37;5.22;;;3.15;;
65377;SDS011;51982;51.042;13.806;2024-02-15T00:41:03;4.28;;;2.60;;
65377;SDS011;51982;51.042;13.806;2024-02-15T00:43:31;3.30;;;2.10;;
65377;SDS011;51982;51.042;13.806;2024-02-15T00:46:00;21.38;;;18.23;;
65377;SDS011;51982;51.042;13.806;2024-02-15T00:48:25;5.32;;;4.20;;
65377;SDS011;51982;51.042;13.806;2024-02-15T00:50:51;46.92;;;36.75;;
65377;SDS011;51982;51.042;13.806;2024-02-15T00:53:16;20.38;;;7.07;;
65377;SDS011;51982;51.042;13.806;2024-02-15T00:55:42;3.53;;;1.30;;
65377;SDS011;51982;51.042;13.806;2024-02-15T00:58:07;206.73;;;130.68;;
65377;SDS011;51982;51.042;13.806;2024-02-15T01:00:32;3.42;;;2.08;;
65377;SDS011;51982;51.042;13.806;2024-02-15T01:02:58;2.72;;;1.60;;
65377;SDS011;51982;51.042;13.806;2024-02-15T01:05:23;3.47;;;1.70;;
65377;SDS011;51982;51.042;13.806;2024-02-15T01:07:49;3.20;;;1.60;;
65377;SDS011;51982;51.042;13.806;2024-02-15T01:10:15;3.38;;;1.30;;
65377;SDS011;51982;51.042;13.806;2024-02-15T01:12:40;223.68;;;135.38;;
65377;SDS011;51982;51.042;13.806;2024-02-15T01:15:06;12.32;;;4.55;;
65377;SDS011;51982;51.042;13.806;2024-02-15T01:17:32;4.68;;;2.90;;
65377;SDS011;51982;51.042;13.806;2024-02-15T01:19:57;4.75;;;2.92;;
65377;SDS011;51982;51.042;13.806;2024-02-15T01:22:22;4.63;;;2.47;;
65377;SDS011;51982;51.042;13.806;2024-02-15T01:24:52;3.72;;;2.45;;
65377;SDS011;51982;51.042;13.806;2024-02-15T01:27:18;3.50;;;2.40;;
65377;SDS011;51982;51.042;13.806;2024-02-15T01:29:43;3.95;;;2.38;;
65377;SDS011;51982;51.042;13.806;2024-02-15T01:32:09;4.30;;;2.40;;
65377;SDS011;51982;51.042;13.806;2024-02-15T01:34:35;4.22;;;2.20;;
65377;SDS011;51982;51.042;13.806;2024-02-15T01:37:00;4.53;;;2.25;;
65377;SDS011;51982;51.042;13.806;2024-02-15T01:39:25;4.18;;;2.20;;
65377;SDS011;51982;51.042;13.806;2024-02-15T01:41:51;3.05;;;2.00;;
65377;SDS011;51982;51.042;13.806;2024-02-15T01:44:17;3.92;;;1.90;;
65377;SDS011;51982;51.042;13.806;2024-02-15T01:46:45;3.08;;;1.80;;
65377;SDS011;51982;51.042;13.806;2024-02-15T01:49:12;4.80;;;2.10;;
65377;SDS011;51982;51.042;13.806;2024-02-15T01:51:38;3.30;;;1.90;;
65377;SDS011;51982;51.042;13.806;2024-02-15T01:54:06;3.20;;;2.20;;
65377;SDS011;51982;51.042;13.806;2024-02-15T01:56:31;3.78;;;1.83;;
65377;SDS011;51982;51.042;13.806;2024-02-15T01:58:57;3.35;;;1.90;;
65377;SDS011;51982;51.042;13.806;2024-02-15T02:01:23;3.67;;;1.92;;
65377;SDS011;51982;51.042;13.806;2024-02-15T02:03:49;2.83;;;1.88;;
65377;SDS011;51982;51.042;13.806;2024-02-15T02:06:14;3.00;;;1.40;;
65377;SDS011;51982;51.042;13.806;2024-02-15T02:08:41;2.58;;;1.60;;
65377;SDS011;51982;51.042;13.806;2024-02-15T02:11:06;2.72;;;1.48;;
65377;SDS011;51982;51.042;13.806;2024-02-15T02:13:31;2.53;;;1.70;;
65377;SDS011;51982;51.042;13.806;2024-02-15T02:15:57;2.22;;;1.40;;
65377;SDS011;51982;51.042;13.806;2024-02-15T02:18:24;2.05;;;1.45;;
65377;SDS011;51982;51.042;13.806;2024-02-15T02:20:50;5.07;;;1.77;;
65377;SDS011;51982;51.042;13.806;2024-02-15T02:23:16;3.30;;;1.63;;
65377;SDS011;51982;51.042;13.806;2024-02-15T02:25:45;2.70;;;1.50;;
65377;SDS011;51982;51.042;13.806;2024-02-15T02:28:14;2.92;;;1.50;;
65377;SDS011;51982;51.042;13.806;2024-02-15T02:30:40;4.32;;;1.58;;
65377;SDS011;51982;51.042;13.806;2024-02-15T02:33:10;2.55;;;1.40;;
65377;SDS011;51982;51.042;13.806;2024-02-15T02:35:36;2.85;;;1.52;;
65377;SDS011;51982;51.042;13.806;2024-02-15T02:38:02;2.30;;;1.40;;
65377;SDS011;51982;51.042;13.806;2024-02-15T02:40:28;2.35;;;1.20;;
65377;SDS011;51982;51.042;13.806;2024-02-15T02:42:54;3.67;;;1.30;;
65377;SDS011;51982;51.042;13.806;2024-02-15T02:45:26;1.77;;;1.17;;
65377;SDS011;51982;51.042;13.806;2024-02-15T02:47:52;7.00;;;1.30;;
65377;SDS011;51982;51.042;13.806;2024-02-15T02:50:18;2.40;;;1.20;;
65377;SDS011;51982;51.042;13.806;2024-02-15T02:52:45;3.50;;;1.27;;
65377;SDS011;51982;51.042;13.806;2024-02-15T02:55:10;2.45;;;1.30;;
65377;SDS011;51982;51.042;13.806;2024-02-15T02:57:36;2.60;;;1.40;;
65377;SDS011;51982;51.042;13.806;2024-02-15T03:00:06;3.15;;;1.33;;
65377;SDS011;51982;51.042;13.806;2024-02-15T03:02:34;1.88;;;1.10;;
65377;SDS011;51982;51.042;13.806;2024-02-15T03:05:06;1.88;;;1.30;;
65377;SDS011;51982;51.042;13.806;2024-02-15T03:07:33;2.10;;;1.40;;
65377;SDS011;51982;51.042;13.806;2024-02-15T03:10:02;2.80;;;1.58;;
65377;SDS011;51982;51.042;13.806;2024-02-15T03:12:38;2.88;;;1.30;;
65377;SDS011;51982;51.042;13.806;2024-02-15T03:15:05;1.83;;;1.10;;
65377;SDS011;51982;51.042;13.806;2024-02-15T03:17:39;1.92;;;1.25;;
65377;SDS011;51982;51.042;13.806;2024-02-15T03:20:06;2.22;;;1.20;;
65377;SDS011;51982;51.042;13.806;2024-02-15T03:22:56;1.98;;;1.10;;
65377;SDS011;51982;51.042;13.806;2024-02-15T03:25:23;1.90;;;1.15;;
65377;SDS011;51982;51.042;13.806;2024-02-15T03:27:52;1.88;;;1.17;;
65377;SDS011;51982;51.042;13.806;2024-02-15T03:30:19;1.20;;;1.00;;
65377;SDS011;51982;51.042;13.806;2024-02-15T03:32:45;2.65;;;1.00;;
65377;SDS011;51982;51.042;13.806;2024-02-15T03:35:13;1.25;;;1.00;;
65377;SDS011;51982;51.042;13.806;2024-02-15T03:37:40;2.03;;;1.23;;
65377;SDS011;51982;51.042;13.806;2024-02-15T03:40:06;1.88;;;1.10;;
65377;SDS011;51982;51.042;13.806;2024-02-15T03:42:33;2.38;;;1.20;;
65377;SDS011;51982;51.042;13.806;2024-02-15T03:45:04;1.90;;;1.00;;
65377;SDS011;51982;51.042;13.806;2024-02-15T03:47:34;1.83;;;1.10;;
65377;SDS011;51982;51.042;13.806;2024-02-15T03:50:06;1.35;;;0.90;;
65377;SDS011;51982;51.042;13.806;2024-02-15T03:52:35;1.17;;;0.85;;
65377;SDS011;51982;51.042;13.806;2024-02-15T03:55:00;2.08;;;1.10;;
65377;SDS011;51982;51.042;13.806;2024-02-15T03:57:27;1.40;;;0.95;;
65377;SDS011;51982;51.042;13.806;2024-02-15T03:59:53;2.22;;;1.08;;
65377;SDS011;51982;51.042;13.806;2024-02-15T04:02:21;3.00;;;1.05;;
65377;SDS011;51982;51.042;13.806;2024-02-15T04:04:48;1.52;;;1.10;;
65377;SDS011;51982;51.042;13.806;2024-02-15T04:07:18;1.75;;;1.00;;
65377;SDS011;51982;51.042;13.806;2024-02-15T04:09:43;1.42;;;0.90;;
65377;SDS011;51982;51.042;13.806;2024-02-15T04:12:09;1.50;;;0.90;;
65377;SDS011;51982;51.042;13.806;2024-02-15T04:14:35;1.45;;;0.93;;
65377;SDS011;51982;51.042;13.806;2024-02-15T04:17:00;1.23;;;0.90;;
65377;SDS011;51982;51.042;13.806;2024-02-15T04:19:30;0.95;;;0.90;;
65377;SDS011;51982;51.042;13.806;2024-02-15T04:21:56;1.10;;;0.80;;
65377;SDS011;51982;51.042;13.806;2024-02-15T04:24:21;1.23;;;0.90;;
65377;SDS011;51982;51.042;13.806;2024-02-15T04:26:48;2.33;;;1.10;;
65377;SDS011;51982;51.042;13.806;2024-02-15T04:29:14;1.10;;;0.90;;
65377;SDS011;51982;51.042;13.806;2024-02-15T04:31:40;1.75;;;1.00;;
65377;SDS011;51982;51.042;13.806;2024-02-15T04:34:08;1.20;;;1.02;;
65377;SDS011;51982;51.042;13.806;2024-02-15T04:36:35;1.15;;;0.90;;
65377;SDS011;51982;51.042;13.806;2024-02-15T04:39:00;1.30;;;0.77;;
65377;SDS011;51982;51.042;13.806;2024-02-15T04:41:29;1.23;;;0.98;;
65377;SDS011;51982;51.042;13.806;2024-02-15T04:43:55;1.00;;;0.82;;
65377;SDS011;51982;51.042;13.806;2024-02-15T04:46:20;1.00;;;0.88;;
65377;SDS011;51982;51.042;13.806;2024-02-15T04:48:49;1.90;;;1.10;;
65377;SDS011;51982;51.042;13.806;2024-02-15T04:51:15;1.50;;;0.90;;
65377;SDS011;51982;51.042;13.806;2024-02-15T04:53:44;1.38;;;1.00;;
65377;SDS011;51982;51.042;13.806;2024-02-15T04:56:13;1.35;;;0.90;;
65377;SDS011;51982;51.042;13.806;2024-02-15T04:58:42;1.70;;;0.90;;
65377;SDS011;51982;51.042;13.806;2024-02-15T05:01:14;0.95;;;0.75;;
65377;SDS011;51982;51.042;13.806;2024-02-15T05:03:44;2.72;;;0.90;;
65377;SDS011;51982;51.042;13.806;2024-02-15T05:06:10;1.25;;;0.82;;
65377;SDS011;51982;51.042;13.806;2024-02-15T05:08:40;2.08;;;1.00;;
65377;SDS011;51982;51.042;13.806;2024-02-15T05:11:09;1.75;;;0.90;;
65377;SDS011;51982;51.042;13.806;2024-02-15T05:13:43;1.60;;;1.05;;
65377;SDS011;51982;51.042;13.806;2024-02-15T05:16:10;1.23;;;0.80;;
65377;SDS011;51982;51.042;13.806;2024-02-15T05:18:35;1.00;;;0.80;;
65377;SDS011;51982;51.042;13.806;2024-02-15T05:21:01;1.45;;;0.90;;
65377;SDS011;51982;51.042;13.806;2024-02-15T05:23:28;0.95;;;0.85;;
65377;SDS011;51982;51.042;13.806;2024-02-15T05:25:53;1.10;;;1.00;;
65377;SDS011;51982;51.042;13.806;2024-02-15T05:28:19;0.98;;;0.88;;
65377;SDS011;51982;51.042;13.806;2024-02-15T05:31:08;0.70;;;0.70;;
65377;SDS011;51982;51.042;13.806;2024-02-15T05:33:42;0.70;;;0.70;;
65377;SDS011;51982;51.042;13.806;2024-02-15T05:36:11;1.38;;;0.75;;
65377;SDS011;51982;51.042;13.806;2024-02-15T05:38:41;1.10;;;0.80;;
65377;SDS011;51982;51.042;13.806;2024-02-15T05:41:10;1.20;;;0.88;;
65377;SDS011;51982;51.042;13.806;2024-02-15T05:43:36;1.15;;;0.85;;
65377;SDS011;51982;51.042;13.806;2024-02-15T05:46:03;0.70;;;0.70;;
65377;SDS011;51982;51.042;13.806;2024-02-15T05:48:29;1.70;;;0.75;;
65377;SDS011;51982;51.042;13.806;2024-02-15T05:50:55;1.90;;;0.90;;
65377;SDS011;51982;51.042;13.806;2024-02-15T05:53:22;1.33;;;0.93;;
65377;SDS011;51982;51.042;13.806;2024-02-15T05:55:48;0.73;;;0.73;;
65377;SDS011;51982;51.042;13.806;2024-02-15T05:58:15;1.10;;;0.90;;
65377;SDS011;51982;51.042;13.806;2024-02-15T06:00:40;1.02;;;0.73;;
65377;SDS011;51982;51.042;13.806;2024-02-15T06:03:06;0.80;;;0.70;;
65377;SDS011;51982;51.042;13.806;2024-02-15T06:05:34;1.48;;;0.80;;
65377;SDS011;51982;51.042;13.806;2024-02-15T06:08:00;1.63;;;0.75;;
65377;SDS011;51982;51.042;13.806;2024-02-15T06:10:25;1.35;;;0.88;;
65377;SDS011;51982;51.042;13.806;2024-02-15T06:12:51;1.65;;;0.80;;
65377;SDS011;51982;51.042;13.806;2024-02-15T06:15:17;1.02;;;0.80;;
65377;SDS011;51982;51.042;13.806;2024-02-15T06:17:42;0.73;;;0.70;;
65377;SDS011;51982;51.042;13.806;2024-02-15T06:20:14;0.80;;;0.80;;
65377;SDS011;51982;51.042;13.806;2024-02-15T06:22:43;0.60;;;0.60;;
65377;SDS011;51982;51.042;13.806;2024-02-15T06:25:09;1.10;;;0.80;;
65377;SDS011;51982;51.042;13.806;2024-02-15T06:27:35;1.00;;;0.80;;
65377;SDS011;51982;51.042;13.806;2024-02-15T06:30:05;0.73;;;0.68;;
65377;SDS011;51982;51.042;13.806;2024-02-15T06:32:51;0.95;;;0.70;;
65377;SDS011;51982;51.042;13.806;2024-02-15T06:35:35;1.35;;;0.80;;
65377;SDS011;51982;51.042;13.806;2024-02-15T06:38:18;0.93;;;0.77;;
65377;SDS011;51982;51.042;13.806;2024-02-15T06:41:02;1.10;;;0.65;;
65377;SDS011;51982;51.042;13.806;2024-02-15T06:43:28;1.05;;;0.80;;
65377;SDS011;51982;51.042;13.806;2024-02-15T06:45:53;0.73;;;0.68;;
65377;SDS011;51982;51.042;13.806;2024-02-15T06:48:20;1.23;;;0.80;;
65377;SDS011;51982;51.042;13.806;2024-02-15T06:50:48;1.27;;;0.80;;
65377;SDS011;51982;51.042;13.806;2024-02-15T06:53:14;1.15;;;0.80;;
65377;SDS011;51982;51.042;13.806;2024-02-15T06:55:39;1.77;;;0.85;;
65377;SDS011;51982;51.042;13.806;2024-02-15T06:58:05;0.55;;;0.55;;
65377;SDS011;51982;51.042;13.806;2024-02-15T07:00:30;1.08;;;0.80;;
65377;SDS011;51982;51.042;13.806;2024-02-15T07:02:57;0.70;;;0.70;;
65377;SDS011;51982;51.042;13.806;2024-02-15T07:05:22;0.73;;;0.70;;
65377;SDS011;51982;51.042;13.806;2024-02-15T07:07:48;1.02;;;0.80;;
65377;SDS011;51982;51.042;13.806;2024-02-15T07:10:15;1.52;;;0.80;;
65377;SDS011;51982;51.042;13.806;2024-02-15T07:12:41;0.73;;;0.68;;
65377;SDS011;51982;51.042;13.806;2024-02-15T07:15:09;0.70;;;0.70;;
65377;SDS011;51982;51.042;13.806;2024-02-15T07:17:34;0.73;;;0.70;;
65377;SDS011;51982;51.042;13.806;2024-02-15T07:20:02;1.20;;;0.80;;
65377;SDS011;51982;51.042;13.806;2024-02-15T07:22:30;0.93;;;0.70;;
65377;SDS011;51982;51.042;13.806;2024-02-15T07:24:56;1.02;;;0.70;;
65377;SDS011;51982;51.042;13.806;2024-02-15T07:27:22;0.77;;;0.70;;
65377;SDS011;51982;51.042;13.806;2024-02-15T07:29:50;0.75;;;0.73;;
65377;SDS011;51982;51.042;13.806;2024-02-15T07:32:16;0.60;;;0.60;;
65377;SDS011;51982;51.042;13.806;2024-02-15T07:34:43;1.60;;;0.60;;
65377;SDS011;51982;51.042;13.806;2024-02-15T07:37:10;0.70;;;0.70;;
65377;SDS011;51982;51.042;13.806;2024-02-15T07:39:37;0.80;;;0.65;;
65377;SDS011;51982;51.042;13.806;2024-02-15T07:42:03;0.98;;;0.80;;
65377;SDS011;51982;51.042;13.806;2024-02-15T07:44:30;0.60;;;0.60;;
65377;SDS011;51982;51.042;13.806;2024-02-15T07:46:57;0.75;;;0.70;;
65377;SDS011;51982;51.042;13.806;2024-02-15T07:49:25;0.90;;;0.80;;
65377;SDS011;51982;51.042;13.806;2024-02-15T07:51:51;0.65;;;0.65;;
65377;SDS011;51982;51.042;13.806;2024-02-15T07:54:19;0.73;;;0.70;;
65377;SDS011;51982;51.042;13.806;2024-02-15T07:56:48;0.60;;;0.60;;
65377;SDS011;51982;51.042;13.806;2024-02-15T07:59:14;1.00;;;0.90;;
65377;SDS011;51982;51.042;13.806;2024-02-15T08:01:42;0.77;;;0.70;;
65377;SDS011;51982;51.042;13.806;2024-02-15T08:04:10;1.10;;;0.70;;
65377;SDS011;51982;51.042;13.806;2024-02-15T08:06:36;0.73;;;0.60;;
65377;SDS011;51982;51.042;13.806;2024-02-15T08:09:03;0.82;;;0.70;;
65377;SDS011;51982;51.042;13.806;2024-02-15T08:11:31;0.70;;;0.70;;
65377;SDS011;51982;51.042;13.806;2024-02-15T08:13:56;0.85;;;0.80;;
65377;SDS011;51982;51.042;13.806;2024-02-15T08:16:24;0.70;;;0.70;;
65377;SDS011;51982;51.042;13.806;2024-02-15T08:18:54;1.23;;;0.75;;
65377;SDS011;51982;51.042;13.806;2024-02-15T08:21:26;1.02;;;0.70;;
65377;SDS011;51982;51.042;13.806;2024-02-15T08:23:54;1.85;;;0.65;;
65377;SDS011;51982;51.042;13.806;2024-02-15T08:26:20;0.70;;;0.60;;
65377;SDS011;51982;51.042;13.806;2024-02-15T08:28:46;0.60;;;0.60;;
65377;SDS011;51982;51.042;13.806;2024-02-15T08:31:12;0.90;;;0.65;;
65377;SDS011;51982;51.042;13.806;2024-02-15T08:33:40;0.68;;;0.68;;
65377;SDS011;51982;51.042;13.806;2024-02-15T08:36:09;0.60;;;0.60;;
65377;SDS011;51982;51.042;13.806;2024-02-15T08:38:35;0.93;;;0.70;;
65377;SDS011;51982;51.042;13.806;2024-02-15T08:41:02;0.98;;;0.70;;
65377;SDS011;51982;51.042;13.806;2024-02-15T08:43:29;0.85;;;0.63;;
65377;SDS011;51982;51.042;13.806;2024-02-15T08:45:54;1.40;;;0.70;;
65377;SDS011;51982;51.042;13.806;2024-02-15T08:48:20;0.70;;;0.70;;
65377;SDS011;51982;51.042;13.806;2024-02-15T08:50:47;0.77;;;0.70;;
65377;SDS011;51982;51.042;13.806;2024-02-15T08:53:13;0.90;;;0.70;;
65377;SDS011;51982;51.042;13.806;2024-02-15T08:55:40;0.98;;;0.68;;
65377;SDS011;51982;51.042;13.806;2024-02-15T08:58:05;0.80;;;0.50;;
65377;SDS011;51982;51.042;13.806;2024-02-15T09:00:31;0.70;;;0.70;;
65377;SDS011;51982;51.042;13.806;2024-02-15T09:02:56;0.60;;;0.60;;
65377;SDS011;51982;51.042;13.806;2024-02-15T09:05:22;0.55;;;0.55;;
65377;SDS011;51982;51.042;13.806;2024-02-15T09:07:47;0.60;;;0.50;;
65377;SDS011;51982;51.042;13.806;2024-02-15T09:10:16;1.13;;;0.80;;
65377;SDS011;51982;51.042;13.806;2024-02-15T09:12:45;0.63;;;0.63;;
65377;SDS011;51982;51.042;13.806;2024-02-15T09:15:14;1.05;;;0.68;;
65377;SDS011;51982;51.042;13.806;2024-02-15T09:17:40;0.55;;;0.55;;
65377;SDS011;51982;51.042;13.806;2024-02-15T09:22:32;1.63;;;0.63;;
65377;SDS011;51982;51.042;13.806;2024-02-15T09:24:58;0.57;;;0.57;;
65377;SDS011;51982;51.042;13.806;2024-02-15T09:27:23;0.57;;;0.50;;
65377;SDS011;51982;51.042;13.806;2024-02-15T09:29:49;1.02;;;0.70;;
65377;SDS011;51982;51.042;13.806;2024-02-15T09:32:14;0.52;;;0.50;;
65377;SDS011;51982;51.042;13.806;2024-02-15T09:34:40;0.57;;;0.55;;
65377;SDS011;51982;51.042;13.806;2024-02-15T09:37:06;0.57;;;0.57;;
65377;SDS011;51982;51.042;13.806;2024-02-15T09:39:32;0.65;;;0.60;;
65377;SDS011;51982;51.042;13.806;2024-02-15T09:41:57;0.63;;;0.63;;
65377;SDS011;51982;51.042;13.806;2024-02-15T09:44:26;0.52;;;0.50;;
65377;SDS011;51982;51.042;13.806;2024-02-15T09:46:59;0.98;;;0.75;;
65377;SDS011;51982;51.042;13.806;2024-02-15T09:49:29;0.57;;;0.57;;
65377;SDS011;51982;51.042;13.806;2024-02-15T09:51:55;0.50;;;0.50;;
65377;SDS011;51982;51.042;13.806;2024-02-15T09:54:23;0.55;;;0.55;;
65377;SDS011;51982;51.042;13.806;2024-02-15T09:56:50;0.70;;;0.70;;
65377;SDS011;51982;51.042;13.806;2024-02-15T09:59:17;0.55;;;0.45;;
65377;SDS011;51982;51.042;13.806;2024-02-15T10:01:44;0.80;;;0.80;;
65377;SDS011;51982;51.042;13.806;2024-02-15T10:04:12;0.60;;;0.60;;
65377;SDS011;51982;51.042;13.806;2024-02-15T10:06:41;1.08;;;0.70;;
65377;SDS011;51982;51.042;13.806;2024-02-15T10:09:23;2.25;;;0.73;;
65377;SDS011;51982;51.042;13.806;2024-02-15T10:11:56;7.65;;;0.90;;
65377;SDS011;51982;51.042;13.806;2024-02-15T10:14:25;8.90;;;2.47;;
65377;SDS011;51982;51.042;13.806;2024-02-15T10:16:53;158.30;;;120.22;;
65377;SDS011;51982;51.042;13.806;2024-02-15T10:19:22;65.40;;;45.95;;
65377;SDS011;51982;51.042;13.806;2024-02-15T10:21:52;5.10;;;2.13;;
65377;SDS011;51982;51.042;13.806;2024-02-15T10:24:21;4.20;;;1.30;;
65377;SDS011;51982;51.042;13.806;2024-02-15T10:26:49;5.32;;;0.93;;
65377;SDS011;51982;51.042;13.806;2024-02-15T10:29:15;4.00;;;1.10;;
65377;SDS011;51982;51.042;13.806;2024-02-15T10:31:55;2.67;;;0.90;;
65377;SDS011;51982;51.042;13.806;2024-02-15T10:34:24;2.97;;;0.82;;
65377;SDS011;51982;51.042;13.806;2024-02-15T10:37:11;1.42;;;0.70;;
65377;SDS011;51982;51.042;13.806;2024-02-15T10:39:38;0.85;;;0.85;;
65377;SDS011;51982;51.042;13.806;2024-02-15T10:42:05;0.73;;;0.73;;
65377;SDS011;51982;51.042;13.806;2024-02-15T10:44:32;1.65;;;0.88;;
65377;SDS011;51982;51.042;13.806;2024-02-15T10:47:00;1.85;;;0.80;;
65377;SDS011;51982;51.042;13.806;2024-02-15T10:49:31;1.02;;;0.70;;
65377;SDS011;51982;51.042;13.806;2024-02-15T10:51:57;0.77;;;0.60;;
65377;SDS011;51982;51.042;13.806;2024-02-15T10:54:30;1.17;;;0.70;;
65377;SDS011;51982;51.042;13.806;2024-02-15T10:57:11;1.13;;;0.90;;
65377;SDS011;51982;51.042;13.806;2024-02-15T10:59:39;1.95;;;1.08;;
65377;SDS011;51982;51.042;13.806;2024-02-15T11:02:23;1.40;;;0.80;;
65377;SDS011;51982;51.042;13.806;2024-02-15T11:04:53;1.58;;;0.90;;
65377;SDS011;51982;51.042;13.806;2024-02-15T11:07:25;1.95;;;0.90;;
65377;SDS011;51982;51.042;13.806;2024-02-15T11:09:56;4.75;;;1.10;;
65377;SDS011;51982;51.042;13.806;2024-02-15T11:12:23;1.92;;;0.90;;
65377;SDS011;51982;51.042;13.806;2024-02-15T11:14:50;2.38;;;0.90;;
65377;SDS011;51982;51.042;13.806;2024-02-15T11:20:02;1.92;;;0.70;;
65377;SDS011;51982;51.042;13.806;2024-02-15T11:22:33;2.60;;;1.02;;
65377;SDS011;51982;51.042;13.806;2024-02-15T11:25:02;2.00;;;0.70;;
65377;SDS011;51982;51.042;13.806;2024-02-15T11:27:34;1.42;;;0.80;;
65377;SDS011;51982;51.042;13.806;2024-02-15T11:30:02;1.60;;;1.00;;
65377;SDS011;51982;51.042;13.806;2024-02-15T11:32:52;1.00;;;0.80;;
65377;SDS011;51982;51.042;13.806;2024-02-15T11:35:25;1.50;;;0.75;;
65377;SDS011;51982;51.042;13.806;2024-02-15T11:37:56;2.05;;;0.98;;
65377;SDS011;51982;51.042;13.806;2024-02-15T11:41:17;1.23;;;0.88;;
65377;SDS011;51982;51.042;13.806;2024-02-15T11:46:08;1.70;;;0.77;;
65377;SDS011;51982;51.042;13.806;2024-02-15T11:48:35;0.77;;;0.70;;
65377;SDS011;51982;51.042;13.806;2024-02-15T11:51:04;2.17;;;0.75;;
65377;SDS011;51982;51.042;13.806;2024-02-15T11:53:31;2.00;;;0.95;;
65377;SDS011;51982;51.042;13.806;2024-02-15T11:56:00;1.35;;;0.82;;
65377;SDS011;51982;51.042;13.806;2024-02-15T11:58:27;0.90;;;0.70;;
65377;SDS011;51982;51.042;13.806;2024-02-15T12:01:10;1.00;;;0.73;;
65377;SDS011;51982;51.042;13.806;2024-02-15T12:03:55;1.70;;;0.80;;
65377;SDS011;51982;51.042;13.806;2024-02-15T12:06:39;1.23;;;0.80;;
65377;SDS011;51982;51.042;13.806;2024-02-15T12:09:24;1.33;;;0.80;;
65377;SDS011;51982;51.042;13.806;2024-02-15T12:12:11;3.75;;;0.75;;
65377;SDS011;51982;51.042;13.806;2024-02-15T12:14:58;1.35;;;0.80;;
65377;SDS011;51982;51.042;13.806;2024-02-15T12:17:46;0.70;;;0.70;;
65377;SDS011;51982;51.042;13.806;2024-02-15T12:20:31;0.85;;;0.80;;
65377;SDS011;51982;51.042;13.806;2024-02-15T12:22:57;2.22;;;0.90;;
65377;SDS011;51982;51.042;13.806;2024-02-15T12:25:23;1.55;;;0.70;;
65377;SDS011;51982;51.042;13.806;2024-02-15T12:27:56;1.88;;;0.85;;
65377;SDS011;51982;51.042;13.806;2024-02-15T12:30:24;1.02;;;0.70;;
65377;SDS011;51982;51.042;13.806;2024-02-15T12:32:51;1.30;;;0.95;;
65377;SDS011;51982;51.042;13.806;2024-02-15T12:35:21;1.38;;;0.80;;
65377;SDS011;51982;51.042;13.806;2024-02-15T12:40:30;2.15;;;0.77;;
65377;SDS011;51982;51.042;13.806;2024-02-15T12:42:56;0.73;;;0.70;;
65377;SDS011;51982;51.042;13.806;2024-02-15T12:45:22;1.63;;;0.90;;
65377;SDS011;51982;51.042;13.806;2024-02-15T12:47:54;0.80;;;0.80;;
65377;SDS011;51982;51.042;13.806;2024-02-15T12:50:21;1.42;;;0.80;;
65377;SDS011;51982;51.042;13.806;2024-02-15T12:52:49;0.98;;;0.80;;
65377;SDS011;51982;51.042;13.806;2024-02-15T12:55:16;1.05;;;0.90;;
65377;SDS011;51982;51.042;13.806;2024-02-15T12:57:44;0.85;;;0.82;;
65377;SDS011;51982;51.042;13.806;2024-02-15T13:00:15;1.02;;;0.80;;
65377;SDS011;51982;51.042;13.806;2024-02-15T13:02:47;1.58;;;0.80;;
65377;SDS011;51982;51.042;13.806;2024-02-15T13:05:18;1.45;;;0.80;;
65377;SDS011;51982;51.042;13.806;2024-02-15T13:07:45;1.40;;;0.73;;
65377;SDS011;51982;51.042;13.806;2024-02-15T13:10:11;1.92;;;0.95;;
65377;SDS011;51982;51.042;13.806;2024-02-15T13:12:36;1.73;;;0.70;;
65377;SDS011;51982;51.042;13.806;2024-02-15T13:15:03;0.70;;;0.70;;
65377;SDS011;51982;51.042;13.806;2024-02-15T13:17:31;1.00;;;0.70;;
65377;SDS011;51982;51.042;13.806;2024-02-15T13:19:58;1.23;;;0.80;;
65377;SDS011;51982;51.042;13.806;2024-02-15T13:22:35;1.00;;;0.85;;
65377;SDS011;51982;51.042;13.806;2024-02-15T13:25:03;2.45;;;0.65;;
65377;SDS011;51982;51.042;13.806;2024-02-15T13:27:29;0.80;;;0.80;;
65377;SDS011;51982;51.042;13.806;2024-02-15T13:29:55;1.15;;;0.85;;
65377;SDS011;51982;51.042;13.806;2024-02-15T13:32:20;1.02;;;0.80;;
65377;SDS011;51982;51.042;13.806;2024-02-15T13:34:47;1.38;;;0.90;;
65377;SDS011;51982;51.042;13.806;2024-02-15T13:37:16;0.57;;;0.57;;
65377;SDS011;51982;51.042;13.806;2024-02-15T13:39:43;1.02;;;0.70;;
65377;SDS011;51982;51.042;13.806;2024-02-15T13:42:10;1.38;;;0.70;;
65377;SDS011;51982;51.042;13.806;2024-02-15T13:44:36;0.73;;;0.70;;
65377;SDS011;51982;51.042;13.806;2024-02-15T13:47:02;1.15;;;1.00;;
65377;SDS011;51982;51.042;13.806;2024-02-15T13:49:28;0.82;;;0.63;;
65377;SDS011;51982;51.042;13.806;2024-02-15T13:51:56;0.82;;;0.75;;
65377;SDS011;51982;51.042;13.806;2024-02-15T13:54:28;1.05;;;0.70;;
65377;SDS011;51982;51.042;13.806;2024-02-15T13:56:55;0.93;;;0.65;;
65377;SDS011;51982;51.042;13.806;2024-02-15T13:59:21;1.92;;;0.90;;
65377;SDS011;51982;51.042;13.806;2024-02-15T14:01:48;2.90;;;0.70;;
65377;SDS011;51982;51.042;13.806;2024-02-15T14:04:14;0.73;;;0.70;;
65377;SDS011;51982;51.042;13.806;2024-02-15T14:06:41;0.77;;;0.70;;
65377;SDS011;51982;51.042;13.806;2024-02-15T14:09:09;1.17;;;0.75;;
65377;SDS011;51982;51.042;13.806;2024-02-15T14:11:36;0.85;;;0.68;;
65377;SDS011;51982;51.042;13.806;2024-02-15T14:14:03;0.80;;;0.73;;
65377;SDS011;51982;51.042;13.806;2024-02-15T14:16:28;2.38;;;1.00;;
65377;SDS011;51982;51.042;13.806;2024-02-15T14:18:54;0.70;;;0.70;;
65377;SDS011;51982;51.042;13.806;2024-02-15T14:21:20;2.22;;;0.77;;
65377;SDS011;51982;51.042;13.806;2024-02-15T14:23:46;1.08;;;0.90;;
65377;SDS011;51982;51.042;13.806;2024-02-15T14:26:11;0.60;;;0.60;;
65377;SDS011;51982;51.042;13.806;2024-02-15T14:28:37;0.88;;;0.80;;
65377;SDS011;51982;51.042;13.806;2024-02-15T14:31:06;1.33;;;0.80;;
65377;SDS011;51982;51.042;13.806;2024-02-15T14:33:50;1.88;;;0.80;;
65377;SDS011;51982;51.042;13.806;2024-02-15T14:36:16;3.08;;;1.02;;
65377;SDS011;51982;51.042;13.806;2024-02-15T14:38:42;0.98;;;0.73;;
65377;SDS011;51982;51.042;13.806;2024-02-15T14:41:08;0.90;;;0.77;;
65377;SDS011;51982;51.042;13.806;2024-02-15T14:43:35;2.33;;;0.93;;
65377;SDS011;51982;51.042;13.806;2024-02-15T14:46:01;0.98;;;0.80;;
65377;SDS011;51982;51.042;13.806;2024-02-15T14:48:29;0.70;;;0.70;;
65377;SDS011;51982;51.042;13.806;2024-02-15T14:50:56;1.20;;;1.00;;
65377;SDS011;51982;51.042;13.806;2024-02-15T14:53:22;0.70;;;0.70;;
65377;SDS011;51982;51.042;13.806;2024-02-15T14:55:48;1.52;;;0.77;;